sensor_id;sensor_type;location;lat;lon;timestamp;temperature;humidity
66140;DHT22;52945;51.908;8.364;2023-02-26T00:00:10;2.90;66.50
66140;DHT22;52945;51.908;8.364;2023-02-26T00:03:11;3.00;66.40
66140;DHT22;52945;51.908;8.364;2023-02-26T00:06:12;2.90;66.40
66140;DHT22;52945;51.908;8.364;2023-02-26T00:09:12;2.90;66.20
66140;DHT22;52945;51.908;8.364;2023-02-26T00:12:13;2.90;66.60
66140;DHT22;52945;51.908;8.364;2023-02-26T00:15:14;2.90;66.40
66140;DHT22;52945;51.908;8.364;2023-02-26T00:18:17;2.90;66.50
66140;DHT22;52945;51.908;8.364;2023-02-26T00:21:19;2.90;66.30
66140;DHT22;52945;51.908;8.364;2023-02-26T00:24:20;2.90;66.50
66140;DHT22;52945;51.908;8.364;2023-02-26T00:27:21;2.90;66.40
66140;DHT22;52945;51.908;8.364;2023-02-26T00:30:21;2.90;66.30
66140;DHT22;52945;51.908;8.364;2023-02-26T00:33:22;2.90;66.20
66140;DHT22;52945;51.908;8.364;2023-02-26T00:36:25;2.90;65.90
66140;DHT22;52945;51.908;8.364;2023-02-26T00:42:46;2.90;65.80
66140;DHT22;52945;51.908;8.364;2023-02-26T00:55:56;2.70;65.50
66140;DHT22;52945;51.908;8.364;2023-02-26T00:58:57;2.70;65.70
66140;DHT22;52945;51.908;8.364;2023-02-26T01:01:57;2.70;65.80
66140;DHT22;52945;51.908;8.364;2023-02-26T01:04:58;2.70;66.00
66140;DHT22;52945;51.908;8.364;2023-02-26T01:08:22;2.70;66.00
66140;DHT22;52945;51.908;8.364;2023-02-26T01:11:24;2.70;65.80
66140;DHT22;52945;51.908;8.364;2023-02-26T01:14:25;2.70;65.60
66140;DHT22;52945;51.908;8.364;2023-02-26T01:17:43;2.60;65.60
66140;DHT22;52945;51.908;8.364;2023-02-26T01:20:50;2.60;65.60
66140;DHT22;52945;51.908;8.364;2023-02-26T01:23:52;2.60;65.50
66140;DHT22;52945;51.908;8.364;2023-02-26T01:26:53;2.60;65.80
66140;DHT22;52945;51.908;8.364;2023-02-26T01:29:54;2.60;65.80
66140;DHT22;52945;51.908;8.364;2023-02-26T01:36:51;2.60;65.40
66140;DHT22;52945;51.908;8.364;2023-02-26T01:43:16;2.50;65.00
66140;DHT22;52945;51.908;8.364;2023-02-26T01:46:49;2.30;64.70
66140;DHT22;52945;51.908;8.364;2023-02-26T01:49:51;2.40;64.60
66140;DHT22;52945;51.908;8.364;2023-02-26T01:56:17;2.40;64.50
66140;DHT22;52945;51.908;8.364;2023-02-26T01:59:18;2.40;64.60
66140;DHT22;52945;51.908;8.364;2023-02-26T02:02:24;2.40;64.10
66140;DHT22;52945;51.908;8.364;2023-02-26T02:05:32;2.50;64.40
66140;DHT22;52945;51.908;8.364;2023-02-26T02:08:34;2.40;64.00
66140;DHT22;52945;51.908;8.364;2023-02-26T02:11:42;2.40;64.10
66140;DHT22;52945;51.908;8.364;2023-02-26T02:14:55;2.30;63.30
66140;DHT22;52945;51.908;8.364;2023-02-26T02:18:20;2.30;63.60
66140;DHT22;52945;51.908;8.364;2023-02-26T02:21:57;2.10;63.10
66140;DHT22;52945;51.908;8.364;2023-02-26T02:31:43;2.30;63.20
66140;DHT22;52945;51.908;8.364;2023-02-26T02:34:52;2.30;63.30
66140;DHT22;52945;51.908;8.364;2023-02-26T02:38:15;2.20;63.10
66140;DHT22;52945;51.908;8.364;2023-02-26T02:41:30;2.20;62.50
66140;DHT22;52945;51.908;8.364;2023-02-26T02:44:36;2.20;62.90
66140;DHT22;52945;51.908;8.364;2023-02-26T02:47:40;2.20;62.80
66140;DHT22;52945;51.908;8.364;2023-02-26T02:50:49;2.20;63.40
66140;DHT22;52945;51.908;8.364;2023-02-26T02:54:10;2.20;63.10
66140;DHT22;52945;51.908;8.364;2023-02-26T03:00:18;2.10;62.90
66140;DHT22;52945;51.908;8.364;2023-02-26T03:03:57;2.10;62.80
66140;DHT22;52945;51.908;8.364;2023-02-26T03:06:58;1.90;62.80
66140;DHT22;52945;51.908;8.364;2023-02-26T03:09:59;1.90;62.90
66140;DHT22;52945;51.908;8.364;2023-02-26T03:12:59;1.90;62.90
66140;DHT22;52945;51.908;8.364;2023-02-26T03:16:21;1.80;63.10
66140;DHT22;52945;51.908;8.364;2023-02-26T03:28:58;1.80;63.20
66140;DHT22;52945;51.908;8.364;2023-02-26T03:32:06;1.70;63.20
66140;DHT22;52945;51.908;8.364;2023-02-26T03:35:13;1.70;63.30
66140;DHT22;52945;51.908;8.364;2023-02-26T03:38:22;1.80;63.40
66140;DHT22;52945;51.908;8.364;2023-02-26T03:41:36;1.80;63.40
66140;DHT22;52945;51.908;8.364;2023-02-26T03:44:52;1.80;63.30
66140;DHT22;52945;51.908;8.364;2023-02-26T03:47:54;1.70;63.30
66140;DHT22;52945;51.908;8.364;2023-02-26T03:51:01;1.70;63.50
66140;DHT22;52945;51.908;8.364;2023-02-26T03:54:26;1.80;63.70
66140;DHT22;52945;51.908;8.364;2023-02-26T03:57:28;1.70;63.50
66140;DHT22;52945;51.908;8.364;2023-02-26T04:00:30;1.70;63.70
66140;DHT22;52945;51.908;8.364;2023-02-26T04:06:58;1.80;63.70
66140;DHT22;52945;51.908;8.364;2023-02-26T04:09:59;1.70;63.60
66140;DHT22;52945;51.908;8.364;2023-02-26T04:13:01;1.80;63.50
66140;DHT22;52945;51.908;8.364;2023-02-26T04:16:02;1.70;63.40
66140;DHT22;52945;51.908;8.364;2023-02-26T04:19:03;1.80;64.00
66140;DHT22;52945;51.908;8.364;2023-02-26T04:22:03;1.80;63.80
66140;DHT22;52945;51.908;8.364;2023-02-26T04:25:04;1.70;63.70
66140;DHT22;52945;51.908;8.364;2023-02-26T04:28:05;1.70;63.70
66140;DHT22;52945;51.908;8.364;2023-02-26T04:31:06;1.60;63.70
66140;DHT22;52945;51.908;8.364;2023-02-26T04:34:07;1.70;64.30
66140;DHT22;52945;51.908;8.364;2023-02-26T04:37:07;1.60;64.00
66140;DHT22;52945;51.908;8.364;2023-02-26T04:40:08;1.70;64.00
66140;DHT22;52945;51.908;8.364;2023-02-26T04:43:09;1.70;63.90
66140;DHT22;52945;51.908;8.364;2023-02-26T04:46:10;1.70;63.90
66140;DHT22;52945;51.908;8.364;2023-02-26T04:49:10;1.60;63.60
66140;DHT22;52945;51.908;8.364;2023-02-26T04:52:11;1.60;64.00
66140;DHT22;52945;51.908;8.364;2023-02-26T04:55:12;1.60;64.20
66140;DHT22;52945;51.908;8.364;2023-02-26T04:58:12;1.60;64.30
66140;DHT22;52945;51.908;8.364;2023-02-26T05:01:13;1.70;64.10
66140;DHT22;52945;51.908;8.364;2023-02-26T05:04:14;1.60;64.10
66140;DHT22;52945;51.908;8.364;2023-02-26T05:07:14;1.60;64.10
66140;DHT22;52945;51.908;8.364;2023-02-26T05:10:18;1.60;64.20
66140;DHT22;52945;51.908;8.364;2023-02-26T05:13:19;1.60;64.00
66140;DHT22;52945;51.908;8.364;2023-02-26T05:16:19;1.50;64.10
66140;DHT22;52945;51.908;8.364;2023-02-26T05:19:20;1.50;64.20
66140;DHT22;52945;51.908;8.364;2023-02-26T05:22:20;1.50;64.10
66140;DHT22;52945;51.908;8.364;2023-02-26T05:25:21;1.50;64.20
66140;DHT22;52945;51.908;8.364;2023-02-26T05:28:26;1.60;64.40
66140;DHT22;52945;51.908;8.364;2023-02-26T05:31:26;1.50;64.50
66140;DHT22;52945;51.908;8.364;2023-02-26T05:34:27;1.50;64.30
66140;DHT22;52945;51.908;8.364;2023-02-26T05:37:28;1.50;64.60
66140;DHT22;52945;51.908;8.364;2023-02-26T05:40:29;1.60;64.90
66140;DHT22;52945;51.908;8.364;2023-02-26T05:43:30;1.50;64.70
66140;DHT22;52945;51.908;8.364;2023-02-26T05:46:31;1.60;64.70
66140;DHT22;52945;51.908;8.364;2023-02-26T05:49:31;1.50;64.70
66140;DHT22;52945;51.908;8.364;2023-02-26T05:52:32;1.60;65.00
66140;DHT22;52945;51.908;8.364;2023-02-26T05:55:33;1.60;64.90
66140;DHT22;52945;51.908;8.364;2023-02-26T05:58:34;1.60;64.90
66140;DHT22;52945;51.908;8.364;2023-02-26T06:01:35;1.50;64.70
66140;DHT22;52945;51.908;8.364;2023-02-26T06:04:36;1.50;65.00
66140;DHT22;52945;51.908;8.364;2023-02-26T06:07:37;1.50;64.80
66140;DHT22;52945;51.908;8.364;2023-02-26T06:10:38;1.40;65.10
66140;DHT22;52945;51.908;8.364;2023-02-26T06:13:38;1.50;65.00
66140;DHT22;52945;51.908;8.364;2023-02-26T06:16:39;1.50;64.90
66140;DHT22;52945;51.908;8.364;2023-02-26T06:19:40;1.50;65.00
66140;DHT22;52945;51.908;8.364;2023-02-26T06:22:40;1.40;65.20
66140;DHT22;52945;51.908;8.364;2023-02-26T06:25:41;1.30;65.10
66140;DHT22;52945;51.908;8.364;2023-02-26T06:28:42;1.40;65.10
66140;DHT22;52945;51.908;8.364;2023-02-26T06:31:43;1.40;65.10
66140;DHT22;52945;51.908;8.364;2023-02-26T06:34:44;1.40;65.20
66140;DHT22;52945;51.908;8.364;2023-02-26T06:37:44;1.50;65.10
66140;DHT22;52945;51.908;8.364;2023-02-26T06:40:46;1.30;65.20
66140;DHT22;52945;51.908;8.364;2023-02-26T06:43:47;1.40;65.40
66140;DHT22;52945;51.908;8.364;2023-02-26T06:46:47;1.30;65.30
66140;DHT22;52945;51.908;8.364;2023-02-26T06:49:48;1.40;65.30
66140;DHT22;52945;51.908;8.364;2023-02-26T06:52:49;1.40;65.00
66140;DHT22;52945;51.908;8.364;2023-02-26T06:55:51;1.40;65.20
66140;DHT22;52945;51.908;8.364;2023-02-26T06:58:52;1.40;65.20
66140;DHT22;52945;51.908;8.364;2023-02-26T07:01:53;1.50;65.30
66140;DHT22;52945;51.908;8.364;2023-02-26T07:04:53;1.50;65.50
66140;DHT22;52945;51.908;8.364;2023-02-26T07:07:54;1.40;65.20
66140;DHT22;52945;51.908;8.364;2023-02-26T07:10:55;1.40;65.20
66140;DHT22;52945;51.908;8.364;2023-02-26T07:13:56;1.50;65.40
66140;DHT22;52945;51.908;8.364;2023-02-26T07:16:56;1.50;65.30
66140;DHT22;52945;51.908;8.364;2023-02-26T07:19:57;1.50;65.40
66140;DHT22;52945;51.908;8.364;2023-02-26T07:22:57;1.40;65.10
66140;DHT22;52945;51.908;8.364;2023-02-26T07:25:58;1.50;65.30
66140;DHT22;52945;51.908;8.364;2023-02-26T07:28:58;1.40;65.20
66140;DHT22;52945;51.908;8.364;2023-02-26T07:31:59;1.40;65.20
66140;DHT22;52945;51.908;8.364;2023-02-26T07:35:00;1.50;65.40
66140;DHT22;52945;51.908;8.364;2023-02-26T07:38:00;1.50;65.20
66140;DHT22;52945;51.908;8.364;2023-02-26T07:41:01;1.50;65.20
66140;DHT22;52945;51.908;8.364;2023-02-26T07:44:02;1.60;65.00
66140;DHT22;52945;51.908;8.364;2023-02-26T07:47:03;1.60;65.20
66140;DHT22;52945;51.908;8.364;2023-02-26T07:50:04;1.70;65.20
66140;DHT22;52945;51.908;8.364;2023-02-26T07:53:05;1.70;65.10
66140;DHT22;52945;51.908;8.364;2023-02-26T07:56:05;1.70;65.10
66140;DHT22;52945;51.908;8.364;2023-02-26T07:59:06;1.70;64.80
66140;DHT22;52945;51.908;8.364;2023-02-26T08:02:07;1.70;64.80
66140;DHT22;52945;51.908;8.364;2023-02-26T08:05:08;1.80;64.90
66140;DHT22;52945;51.908;8.364;2023-02-26T08:08:08;1.80;64.90
66140;DHT22;52945;51.908;8.364;2023-02-26T08:11:09;1.90;65.30
66140;DHT22;52945;51.908;8.364;2023-02-26T08:14:10;2.00;65.20
66140;DHT22;52945;51.908;8.364;2023-02-26T08:17:11;2.10;64.80
66140;DHT22;52945;51.908;8.364;2023-02-26T08:20:12;2.10;64.10
66140;DHT22;52945;51.908;8.364;2023-02-26T08:23:14;2.10;63.70
66140;DHT22;52945;51.908;8.364;2023-02-26T08:26:15;2.20;63.60
66140;DHT22;52945;51.908;8.364;2023-02-26T08:29:15;2.10;62.60
66140;DHT22;52945;51.908;8.364;2023-02-26T08:32:17;2.10;62.60
66140;DHT22;52945;51.908;8.364;2023-02-26T08:35:18;2.20;62.80
66140;DHT22;52945;51.908;8.364;2023-02-26T08:38:19;2.40;63.10
66140;DHT22;52945;51.908;8.364;2023-02-26T08:41:20;2.60;62.80
66140;DHT22;52945;51.908;8.364;2023-02-26T08:44:22;2.80;61.60
66140;DHT22;52945;51.908;8.364;2023-02-26T08:47:22;2.90;61.00
66140;DHT22;52945;51.908;8.364;2023-02-26T08:50:24;3.10;60.10
66140;DHT22;52945;51.908;8.364;2023-02-26T08:53:25;3.20;61.10
66140;DHT22;52945;51.908;8.364;2023-02-26T08:56:25;3.50;59.40
66140;DHT22;52945;51.908;8.364;2023-02-26T08:59:26;3.60;59.60
66140;DHT22;52945;51.908;8.364;2023-02-26T09:02:26;4.00;59.00
66140;DHT22;52945;51.908;8.364;2023-02-26T09:05:27;4.30;58.60
66140;DHT22;52945;51.908;8.364;2023-02-26T09:08:28;4.50;57.00
66140;DHT22;52945;51.908;8.364;2023-02-26T09:11:33;4.60;57.10
66140;DHT22;52945;51.908;8.364;2023-02-26T09:14:36;4.70;55.00
66140;DHT22;52945;51.908;8.364;2023-02-26T09:17:36;4.90;55.10
66140;DHT22;52945;51.908;8.364;2023-02-26T09:20:37;5.20;55.20
66140;DHT22;52945;51.908;8.364;2023-02-26T09:23:38;5.40;54.40
66140;DHT22;52945;51.908;8.364;2023-02-26T09:26:38;5.70;52.20
66140;DHT22;52945;51.908;8.364;2023-02-26T09:29:39;5.40;51.10
66140;DHT22;52945;51.908;8.364;2023-02-26T09:32:39;5.80;52.90
66140;DHT22;52945;51.908;8.364;2023-02-26T09:35:40;5.70;50.30
66140;DHT22;52945;51.908;8.364;2023-02-26T09:38:41;5.70;51.80
66140;DHT22;52945;51.908;8.364;2023-02-26T09:41:47;6.10;52.60
66140;DHT22;52945;51.908;8.364;2023-02-26T09:44:49;6.40;49.10
66140;DHT22;52945;51.908;8.364;2023-02-26T09:47:53;6.70;48.70
66140;DHT22;52945;51.908;8.364;2023-02-26T09:50:56;6.80;46.70
66140;DHT22;52945;51.908;8.364;2023-02-26T09:53:58;6.60;45.70
66140;DHT22;52945;51.908;8.364;2023-02-26T09:57:00;6.80;46.50
66140;DHT22;52945;51.908;8.364;2023-02-26T10:00:17;6.90;46.20
66140;DHT22;52945;51.908;8.364;2023-02-26T10:16:39;6.60;40.70
66140;DHT22;52945;51.908;8.364;2023-02-26T10:19:43;6.60;43.20
66140;DHT22;52945;51.908;8.364;2023-02-26T10:23:16;6.70;43.40
66140;DHT22;52945;51.908;8.364;2023-02-26T10:26:22;6.80;44.40
66140;DHT22;52945;51.908;8.364;2023-02-26T10:29:39;6.90;42.50
66140;DHT22;52945;51.908;8.364;2023-02-26T10:33:11;6.60;42.50
66140;DHT22;52945;51.908;8.364;2023-02-26T10:36:22;6.50;41.00
66140;DHT22;52945;51.908;8.364;2023-02-26T10:39:54;6.50;41.90
66140;DHT22;52945;51.908;8.364;2023-02-26T10:43:03;6.40;41.70
66140;DHT22;52945;51.908;8.364;2023-02-26T10:52:35;6.80;42.40
66140;DHT22;52945;51.908;8.364;2023-02-26T10:55:56;7.10;41.00
66140;DHT22;52945;51.908;8.364;2023-02-26T10:58:59;7.10;39.80
66140;DHT22;52945;51.908;8.364;2023-02-26T11:02:00;7.10;39.70
66140;DHT22;52945;51.908;8.364;2023-02-26T11:05:04;7.30;39.00
66140;DHT22;52945;51.908;8.364;2023-02-26T11:08:27;7.40;39.30
66140;DHT22;52945;51.908;8.364;2023-02-26T11:11:41;7.20;38.20
66140;DHT22;52945;51.908;8.364;2023-02-26T11:14:42;7.00;39.10
66140;DHT22;52945;51.908;8.364;2023-02-26T11:17:46;6.60;39.50
66140;DHT22;52945;51.908;8.364;2023-02-26T11:20:48;6.60;40.60
66140;DHT22;52945;51.908;8.364;2023-02-26T11:23:49;6.60;38.70
66140;DHT22;52945;51.908;8.364;2023-02-26T11:26:54;6.70;40.20
66140;DHT22;52945;51.908;8.364;2023-02-26T11:30:04;6.70;40.00
66140;DHT22;52945;51.908;8.364;2023-02-26T11:33:19;6.90;39.80
66140;DHT22;52945;51.908;8.364;2023-02-26T11:36:23;6.90;37.90
66140;DHT22;52945;51.908;8.364;2023-02-26T11:39:31;7.00;39.60
66140;DHT22;52945;51.908;8.364;2023-02-26T11:42:37;7.20;39.50
66140;DHT22;52945;51.908;8.364;2023-02-26T11:45:41;7.30;39.50
66140;DHT22;52945;51.908;8.364;2023-02-26T11:48:45;7.60;38.60
66140;DHT22;52945;51.908;8.364;2023-02-26T11:51:48;7.70;37.80
66140;DHT22;52945;51.908;8.364;2023-02-26T11:55:03;7.70;37.70
66140;DHT22;52945;51.908;8.364;2023-02-26T11:58:16;7.80;38.60
66140;DHT22;52945;51.908;8.364;2023-02-26T12:01:17;7.80;39.60
66140;DHT22;52945;51.908;8.364;2023-02-26T12:04:23;7.20;38.60
66140;DHT22;52945;51.908;8.364;2023-02-26T12:07:24;7.30;39.90
66140;DHT22;52945;51.908;8.364;2023-02-26T12:10:38;7.30;39.70
66140;DHT22;52945;51.908;8.364;2023-02-26T12:27:13;7.70;37.50
66140;DHT22;52945;51.908;8.364;2023-02-26T12:30:38;7.80;38.60
66140;DHT22;52945;51.908;8.364;2023-02-26T12:41:04;7.70;37.20
66140;DHT22;52945;51.908;8.364;2023-02-26T12:44:40;7.70;37.50
66140;DHT22;52945;51.908;8.364;2023-02-26T12:51:21;7.10;38.20
66140;DHT22;52945;51.908;8.364;2023-02-26T12:57:46;6.90;38.50
66140;DHT22;52945;51.908;8.364;2023-02-26T13:10:47;7.40;38.50
66140;DHT22;52945;51.908;8.364;2023-02-26T13:14:20;7.40;38.60
66140;DHT22;52945;51.908;8.364;2023-02-26T13:20:25;7.60;37.80
66140;DHT22;52945;51.908;8.364;2023-02-26T13:23:55;7.70;38.50
66140;DHT22;52945;51.908;8.364;2023-02-26T13:26:57;7.70;39.00
66140;DHT22;52945;51.908;8.364;2023-02-26T13:30:13;7.00;39.20
66140;DHT22;52945;51.908;8.364;2023-02-26T13:33:19;7.10;40.10
66140;DHT22;52945;51.908;8.364;2023-02-26T13:36:23;6.90;40.00
66140;DHT22;52945;51.908;8.364;2023-02-26T13:53:59;7.40;40.20
66140;DHT22;52945;51.908;8.364;2023-02-26T13:57:22;7.50;39.20
66140;DHT22;52945;51.908;8.364;2023-02-26T14:00:32;7.60;39.60
66140;DHT22;52945;51.908;8.364;2023-02-26T14:04:07;7.80;39.30
66140;DHT22;52945;51.908;8.364;2023-02-26T14:11:05;8.10;38.00
66140;DHT22;52945;51.908;8.364;2023-02-26T14:17:58;7.60;38.80
66140;DHT22;52945;51.908;8.364;2023-02-26T14:24:43;7.60;38.10
66140;DHT22;52945;51.908;8.364;2023-02-26T14:27:46;7.70;39.20
66140;DHT22;52945;51.908;8.364;2023-02-26T14:30:51;7.90;39.60
66140;DHT22;52945;51.908;8.364;2023-02-26T14:34:10;7.90;36.90
66140;DHT22;52945;51.908;8.364;2023-02-26T14:37:15;8.00;37.50
66140;DHT22;52945;51.908;8.364;2023-02-26T14:40:19;7.70;37.10
66140;DHT22;52945;51.908;8.364;2023-02-26T14:46:33;8.00;37.50
66140;DHT22;52945;51.908;8.364;2023-02-26T14:49:37;8.10;37.50
66140;DHT22;52945;51.908;8.364;2023-02-26T14:52:50;8.10;38.00
66140;DHT22;52945;51.908;8.364;2023-02-26T14:56:08;8.10;37.20
66140;DHT22;52945;51.908;8.364;2023-02-26T15:02:34;8.20;39.00
66140;DHT22;52945;51.908;8.364;2023-02-26T15:09:30;8.40;38.10
66140;DHT22;52945;51.908;8.364;2023-02-26T15:12:42;8.40;37.10
66140;DHT22;52945;51.908;8.364;2023-02-26T15:15:53;8.50;37.40
66140;DHT22;52945;51.908;8.364;2023-02-26T15:22:50;8.70;37.00
66140;DHT22;52945;51.908;8.364;2023-02-26T15:25:47;9.00;37.90
66140;DHT22;52945;51.908;8.364;2023-02-26T15:28:50;9.10;37.30
66140;DHT22;52945;51.908;8.364;2023-02-26T15:31:59;9.10;34.90
66140;DHT22;52945;51.908;8.364;2023-02-26T15:35:21;9.10;34.70
66140;DHT22;52945;51.908;8.364;2023-02-26T15:38:22;9.00;35.10
66140;DHT22;52945;51.908;8.364;2023-02-26T15:41:25;9.00;35.40
66140;DHT22;52945;51.908;8.364;2023-02-26T15:44:30;9.20;35.60
66140;DHT22;52945;51.908;8.364;2023-02-26T15:47:31;9.20;35.10
66140;DHT22;52945;51.908;8.364;2023-02-26T15:50:36;9.20;35.10
66140;DHT22;52945;51.908;8.364;2023-02-26T15:53:45;9.40;35.90
66140;DHT22;52945;51.908;8.364;2023-02-26T15:56:47;9.50;35.50
66140;DHT22;52945;51.908;8.364;2023-02-26T15:59:51;9.10;34.40
66140;DHT22;52945;51.908;8.364;2023-02-26T16:02:53;8.70;34.70
66140;DHT22;52945;51.908;8.364;2023-02-26T16:05:57;8.00;35.80
66140;DHT22;52945;51.908;8.364;2023-02-26T16:08:59;7.90;36.50
66140;DHT22;52945;51.908;8.364;2023-02-26T16:12:05;7.90;37.80
66140;DHT22;52945;51.908;8.364;2023-02-26T16:15:12;8.00;38.00
66140;DHT22;52945;51.908;8.364;2023-02-26T16:18:16;7.80;37.30
66140;DHT22;52945;51.908;8.364;2023-02-26T16:24:28;7.60;37.20
66140;DHT22;52945;51.908;8.364;2023-02-26T16:27:30;7.40;37.50
66140;DHT22;52945;51.908;8.364;2023-02-26T16:30:37;7.40;38.30
66140;DHT22;52945;51.908;8.364;2023-02-26T16:33:38;7.40;38.50
66140;DHT22;52945;51.908;8.364;2023-02-26T16:36:40;7.30;38.80
66140;DHT22;52945;51.908;8.364;2023-02-26T16:39:43;7.40;40.00
66140;DHT22;52945;51.908;8.364;2023-02-26T16:42:57;7.40;40.60
66140;DHT22;52945;51.908;8.364;2023-02-26T16:46:00;7.30;41.10
66140;DHT22;52945;51.908;8.364;2023-02-26T16:52:23;7.20;42.00
66140;DHT22;52945;51.908;8.364;2023-02-26T16:55:27;7.10;41.90
66140;DHT22;52945;51.908;8.364;2023-02-26T16:58:30;7.00;42.10
66140;DHT22;52945;51.908;8.364;2023-02-26T17:01:47;7.00;42.50
66140;DHT22;52945;51.908;8.364;2023-02-26T17:04:52;6.80;42.30
66140;DHT22;52945;51.908;8.364;2023-02-26T17:08:17;6.70;42.60
66140;DHT22;52945;51.908;8.364;2023-02-26T17:11:29;6.60;43.10
66140;DHT22;52945;51.908;8.364;2023-02-26T17:14:36;6.60;43.60
66140;DHT22;52945;51.908;8.364;2023-02-26T17:17:37;6.60;43.90
66140;DHT22;52945;51.908;8.364;2023-02-26T17:20:39;6.50;44.20
66140;DHT22;52945;51.908;8.364;2023-02-26T17:23:39;6.50;44.40
66140;DHT22;52945;51.908;8.364;2023-02-26T17:26:40;6.50;44.70
66140;DHT22;52945;51.908;8.364;2023-02-26T17:29:43;6.60;45.60
66140;DHT22;52945;51.908;8.364;2023-02-26T17:32:44;6.60;45.70
66140;DHT22;52945;51.908;8.364;2023-02-26T17:35:44;6.50;44.90
66140;DHT22;52945;51.908;8.364;2023-02-26T17:38:45;6.40;45.10
66140;DHT22;52945;51.908;8.364;2023-02-26T17:41:47;6.20;44.90
66140;DHT22;52945;51.908;8.364;2023-02-26T17:44:49;6.20;45.50
66140;DHT22;52945;51.908;8.364;2023-02-26T17:47:50;6.40;45.30
66140;DHT22;52945;51.908;8.364;2023-02-26T17:50:52;6.40;45.60
66140;DHT22;52945;51.908;8.364;2023-02-26T17:53:54;6.30;45.80
66140;DHT22;52945;51.908;8.364;2023-02-26T17:56:55;6.30;46.00
66140;DHT22;52945;51.908;8.364;2023-02-26T17:59:55;6.20;45.70
66140;DHT22;52945;51.908;8.364;2023-02-26T18:02:56;6.10;45.80
66140;DHT22;52945;51.908;8.364;2023-02-26T18:05:57;6.10;46.40
66140;DHT22;52945;51.908;8.364;2023-02-26T18:08:57;6.20;47.10
66140;DHT22;52945;51.908;8.364;2023-02-26T18:11:58;6.20;47.00
66140;DHT22;52945;51.908;8.364;2023-02-26T18:14:59;6.10;46.30
66140;DHT22;52945;51.908;8.364;2023-02-26T18:17:59;6.10;46.70
66140;DHT22;52945;51.908;8.364;2023-02-26T18:21:00;6.10;47.10
66140;DHT22;52945;51.908;8.364;2023-02-26T18:24:01;6.10;47.50
66140;DHT22;52945;51.908;8.364;2023-02-26T18:27:02;6.00;47.30
66140;DHT22;52945;51.908;8.364;2023-02-26T18:30:03;5.90;47.40
66140;DHT22;52945;51.908;8.364;2023-02-26T18:33:04;5.90;47.70
66140;DHT22;52945;51.908;8.364;2023-02-26T18:36:05;5.90;47.50
66140;DHT22;52945;51.908;8.364;2023-02-26T18:39:09;5.80;47.80
66140;DHT22;52945;51.908;8.364;2023-02-26T18:42:25;5.80;47.90
66140;DHT22;52945;51.908;8.364;2023-02-26T18:45:25;5.80;48.20
66140;DHT22;52945;51.908;8.364;2023-02-26T18:48:26;5.80;48.60
66140;DHT22;52945;51.908;8.364;2023-02-26T18:51:27;5.70;48.40
66140;DHT22;52945;51.908;8.364;2023-02-26T18:54:29;5.80;49.00
66140;DHT22;52945;51.908;8.364;2023-02-26T18:57:29;5.80;48.80
66140;DHT22;52945;51.908;8.364;2023-02-26T19:00:30;5.80;49.20
66140;DHT22;52945;51.908;8.364;2023-02-26T19:03:31;5.70;49.50
66140;DHT22;52945;51.908;8.364;2023-02-26T19:06:32;5.70;48.80
66140;DHT22;52945;51.908;8.364;2023-02-26T19:09:32;5.60;49.10
66140;DHT22;52945;51.908;8.364;2023-02-26T19:12:34;5.50;49.20
66140;DHT22;52945;51.908;8.364;2023-02-26T19:15:35;5.50;50.10
66140;DHT22;52945;51.908;8.364;2023-02-26T19:18:35;5.30;49.20
66140;DHT22;52945;51.908;8.364;2023-02-26T19:21:36;5.20;50.20
66140;DHT22;52945;51.908;8.364;2023-02-26T19:24:40;5.30;50.40
66140;DHT22;52945;51.908;8.364;2023-02-26T19:27:41;5.40;50.60
66140;DHT22;52945;51.908;8.364;2023-02-26T19:30:42;5.40;50.80
66140;DHT22;52945;51.908;8.364;2023-02-26T19:33:42;5.40;50.60
66140;DHT22;52945;51.908;8.364;2023-02-26T19:36:43;5.30;50.50
66140;DHT22;52945;51.908;8.364;2023-02-26T19:39:47;5.40;50.60
66140;DHT22;52945;51.908;8.364;2023-02-26T19:42:48;5.40;50.80
66140;DHT22;52945;51.908;8.364;2023-02-26T19:45:48;5.40;50.90
66140;DHT22;52945;51.908;8.364;2023-02-26T19:48:49;5.40;51.30
66140;DHT22;52945;51.908;8.364;2023-02-26T19:51:50;5.50;51.40
66140;DHT22;52945;51.908;8.364;2023-02-26T19:54:50;5.50;51.20
66140;DHT22;52945;51.908;8.364;2023-02-26T19:57:51;5.50;50.80
66140;DHT22;52945;51.908;8.364;2023-02-26T20:00:52;5.40;51.10
66140;DHT22;52945;51.908;8.364;2023-02-26T20:03:52;5.50;51.50
66140;DHT22;52945;51.908;8.364;2023-02-26T20:06:53;5.40;51.50
66140;DHT22;52945;51.908;8.364;2023-02-26T20:09:54;5.40;51.70
66140;DHT22;52945;51.908;8.364;2023-02-26T20:12:54;5.40;51.90
66140;DHT22;52945;51.908;8.364;2023-02-26T20:15:58;5.30;52.00
66140;DHT22;52945;51.908;8.364;2023-02-26T20:18:59;5.30;52.10
66140;DHT22;52945;51.908;8.364;2023-02-26T20:21:59;5.20;52.20
66140;DHT22;52945;51.908;8.364;2023-02-26T20:25:00;5.20;52.60
66140;DHT22;52945;51.908;8.364;2023-02-26T20:28:01;5.20;52.30
66140;DHT22;52945;51.908;8.364;2023-02-26T20:31:02;5.10;52.40
66140;DHT22;52945;51.908;8.364;2023-02-26T20:34:03;5.10;52.60
66140;DHT22;52945;51.908;8.364;2023-02-26T20:37:03;5.00;52.90
66140;DHT22;52945;51.908;8.364;2023-02-26T20:40:05;5.00;52.80
66140;DHT22;52945;51.908;8.364;2023-02-26T20:43:06;5.00;53.10
66140;DHT22;52945;51.908;8.364;2023-02-26T20:46:07;5.00;53.30
66140;DHT22;52945;51.908;8.364;2023-02-26T20:49:08;4.90;53.20
66140;DHT22;52945;51.908;8.364;2023-02-26T20:52:10;4.90;53.40
66140;DHT22;52945;51.908;8.364;2023-02-26T20:55:11;4.90;53.40
66140;DHT22;52945;51.908;8.364;2023-02-26T20:58:11;4.80;53.30
66140;DHT22;52945;51.908;8.364;2023-02-26T21:01:12;4.80;53.30
66140;DHT22;52945;51.908;8.364;2023-02-26T21:04:13;4.80;53.40
66140;DHT22;52945;51.908;8.364;2023-02-26T21:07:13;4.80;53.50
66140;DHT22;52945;51.908;8.364;2023-02-26T21:10:21;4.70;53.80
66140;DHT22;52945;51.908;8.364;2023-02-26T21:13:21;4.70;54.10
66140;DHT22;52945;51.908;8.364;2023-02-26T21:16:22;4.70;53.70
66140;DHT22;52945;51.908;8.364;2023-02-26T21:19:24;4.60;54.00
66140;DHT22;52945;51.908;8.364;2023-02-26T21:22:25;4.60;54.10
66140;DHT22;52945;51.908;8.364;2023-02-26T21:25:26;4.60;54.20
66140;DHT22;52945;51.908;8.364;2023-02-26T21:28:26;4.60;54.20
66140;DHT22;52945;51.908;8.364;2023-02-26T21:31:27;4.50;54.60
66140;DHT22;52945;51.908;8.364;2023-02-26T21:34:29;4.50;54.70
66140;DHT22;52945;51.908;8.364;2023-02-26T21:37:34;4.40;54.60
66140;DHT22;52945;51.908;8.364;2023-02-26T21:40:35;4.40;54.90
66140;DHT22;52945;51.908;8.364;2023-02-26T21:43:35;4.40;54.90
66140;DHT22;52945;51.908;8.364;2023-02-26T21:46:36;4.30;54.90
66140;DHT22;52945;51.908;8.364;2023-02-26T21:49:37;4.30;55.00
66140;DHT22;52945;51.908;8.364;2023-02-26T21:52:37;4.30;55.00
66140;DHT22;52945;51.908;8.364;2023-02-26T21:55:40;4.20;55.10
66140;DHT22;52945;51.908;8.364;2023-02-26T21:58:41;4.20;55.30
66140;DHT22;52945;51.908;8.364;2023-02-26T22:01:42;4.20;55.30
66140;DHT22;52945;51.908;8.364;2023-02-26T22:04:44;4.10;55.40
66140;DHT22;52945;51.908;8.364;2023-02-26T22:07:44;4.10;55.50
66140;DHT22;52945;51.908;8.364;2023-02-26T22:10:45;3.90;55.70
66140;DHT22;52945;51.908;8.364;2023-02-26T22:13:46;3.90;55.50